createdAt,value
2023-03-30T00:02:23.196Z,16.40
2023-03-30T00:04:50.323Z,14.97
2023-03-30T00:07:17.082Z,17.00
2023-03-30T00:09:43.837Z,16.03
2023-03-30T00:12:10.802Z,15.90
2023-03-30T00:14:42.650Z,17.50
2023-03-30T00:17:09.560Z,19.70
2023-03-30T00:19:38.994Z,15.90
2023-03-30T00:22:05.907Z,14.80
2023-03-30T00:24:32.492Z,15.13
2023-03-30T00:26:59.271Z,13.87
2023-03-30T00:29:26.007Z,17.57
2023-03-30T00:31:53.032Z,15.17
2023-03-30T00:34:19.597Z,17.13
2023-03-30T00:36:49.251Z,16.10
2023-03-30T00:39:18.968Z,19.47
2023-03-30T00:41:45.942Z,13.43
2023-03-30T00:44:31.152Z,15.00
2023-03-30T00:46:58.183Z,13.83
2023-03-30T00:49:25.234Z,14.30
2023-03-30T00:51:51.887Z,16.53
2023-03-30T00:54:19.412Z,16.33
2023-03-30T00:56:46.208Z,15.40
2023-03-30T00:59:13.208Z,13.93
2023-03-30T01:01:40.580Z,14.40
2023-03-30T01:04:07.598Z,16.77
2023-03-30T01:06:34.307Z,13.83
2023-03-30T01:09:01.147Z,18.57
2023-03-30T01:11:28.060Z,15.63
2023-03-30T01:13:59.359Z,15.40
2023-03-30T01:16:26.373Z,13.93
2023-03-30T01:19:11.594Z,14.40
2023-03-30T01:21:58.840Z,14.57
2023-03-30T01:24:28.640Z,14.37
2023-03-30T01:26:56.832Z,11.50
2023-03-30T01:29:27.528Z,14.70
2023-03-30T01:32:01.271Z,12.27
2023-03-30T01:34:30.944Z,16.53
2023-03-30T01:37:16.152Z,11.30
2023-03-30T01:39:52.817Z,12.23
2023-03-30T01:42:23.463Z,13.07
2023-03-30T02:16:59.889Z,14.73
2023-03-30T02:19:27.964Z,14.90
2023-03-30T02:21:54.583Z,18.50
2023-03-30T02:24:23.006Z,13.60
2023-03-30T02:26:50.564Z,13.07
2023-03-30T02:29:18.449Z,11.10
2023-03-30T02:31:45.428Z,12.90
2023-03-30T02:34:29.985Z,13.27
2023-03-30T02:37:02.020Z,13.17
2023-03-30T02:39:28.903Z,13.50
2023-03-30T02:42:07.595Z,17.20
2023-03-30T02:44:37.668Z,12.10
2023-03-30T02:47:06.067Z,10.97
2023-03-30T02:49:49.282Z,12.17
2023-03-30T02:52:16.030Z,11.77
2023-03-30T02:54:47.192Z,10.50
2023-03-30T02:57:35.332Z,10.73
2023-03-30T03:00:25.077Z,11.13
2023-03-30T03:02:53.324Z,12.43
2023-03-30T03:05:25.400Z,12.97
2023-03-30T03:08:19.007Z,13.13
2023-03-30T03:10:48.101Z,14.77
2023-03-30T03:13:16.320Z,9.67
2023-03-30T03:15:47.151Z,13.63
2023-03-30T03:18:13.754Z,12.80
2023-03-30T03:20:41.947Z,11.20
2023-03-30T03:23:09.126Z,9.77
2023-03-30T03:25:43.523Z,10.20
2023-03-30T03:28:12.544Z,11.07
2023-03-30T03:30:42.882Z,9.33
2023-03-30T03:33:15.829Z,13.23
2023-03-30T03:35:48.464Z,10.40
2023-03-30T03:38:16.246Z,11.97
2023-03-30T03:40:43.084Z,12.43
2023-03-30T03:43:11.110Z,13.33
2023-03-30T03:45:37.797Z,12.87
2023-03-30T03:48:04.448Z,9.53
2023-03-30T03:50:42.995Z,11.17
2023-03-30T03:53:09.905Z,12.00
2023-03-30T03:55:36.840Z,11.60
2023-03-30T03:58:07.457Z,11.30
2023-03-30T04:00:36.340Z,9.20
2023-03-30T04:03:05.120Z,12.77
2023-03-30T04:05:32.689Z,13.57
2023-03-30T04:07:59.533Z,11.13
2023-03-30T04:10:26.437Z,11.93
2023-03-30T04:13:00.635Z,12.77
2023-03-30T04:15:46.616Z,16.00
2023-03-30T04:18:32.338Z,12.17
2023-03-30T04:21:20.434Z,12.20
2023-03-30T04:24:13.610Z,12.10
2023-03-30T04:26:53.752Z,17.37
2023-03-30T04:29:59.007Z,12.97
2023-03-30T04:32:44.927Z,10.77
2023-03-30T04:35:33.390Z,15.37
2023-03-30T04:38:00.566Z,13.47
2023-03-30T04:41:05.786Z,9.33
2023-03-30T04:43:48.173Z,11.80
2023-03-30T04:46:25.816Z,14.97
2023-03-30T04:49:12.645Z,13.97
2023-03-30T04:51:57.860Z,17.10
2023-03-30T04:54:44.209Z,15.70
2023-03-30T04:57:33.588Z,20.30
2023-03-30T05:00:13.727Z,14.80
2023-03-30T05:03:06.513Z,13.20
2023-03-30T05:05:52.392Z,15.37
2023-03-30T05:08:41.642Z,16.30
2023-03-30T05:11:31.761Z,20.83
2023-03-30T05:14:16.454Z,15.53
2023-03-30T05:16:59.676Z,14.43
2023-03-30T05:19:44.018Z,14.83
2023-03-30T05:22:21.499Z,15.50
2023-03-30T05:25:11.392Z,14.90
2023-03-30T05:28:00.436Z,16.40
2023-03-30T05:30:48.835Z,13.40
2023-03-30T05:33:35.061Z,16.20
2023-03-30T05:36:20.884Z,16.40
2023-03-30T05:39:00.466Z,16.63
2023-03-30T05:42:01.753Z,15.53
2023-03-30T05:44:46.913Z,14.67
2023-03-30T05:47:49.332Z,15.33
2023-03-30T05:50:39.227Z,14.60
2023-03-30T05:53:12.369Z,14.53
2023-03-30T05:56:05.178Z,14.53
2023-03-30T05:58:58.108Z,12.40
2023-03-30T06:01:45.945Z,12.33
2023-03-30T06:04:13.754Z,16.13
2023-03-30T06:06:42.075Z,11.90
2023-03-30T06:09:09.156Z,15.47
2023-03-30T06:11:36.910Z,13.37
2023-03-30T06:14:17.342Z,15.03
2023-03-30T06:16:54.752Z,15.17
2023-03-30T06:19:22.371Z,15.27
2023-03-30T06:21:48.993Z,15.70
2023-03-30T06:24:33.759Z,16.53
2023-03-30T06:27:03.014Z,17.03
2023-03-30T06:29:30.869Z,16.17
2023-03-30T06:31:59.291Z,19.03
2023-03-30T06:34:41.183Z,20.73
2023-03-30T06:37:09.119Z,19.00
2023-03-30T06:39:37.949Z,20.23
2023-03-30T06:42:06.543Z,20.60
2023-03-30T06:44:48.059Z,21.60
2023-03-30T06:47:16.336Z,20.17
2023-03-30T06:49:43.031Z,20.10
2023-03-30T06:52:34.485Z,21.03
2023-03-30T06:55:01.517Z,20.00
2023-03-30T06:57:28.458Z,21.50
2023-03-30T06:59:56.434Z,20.17
2023-03-30T07:02:23.714Z,21.63
2023-03-30T07:05:06.151Z,24.90
2023-03-30T07:07:44.566Z,21.07
2023-03-30T07:10:12.296Z,18.80
2023-03-30T07:12:39.272Z,22.20
2023-03-30T07:15:08.000Z,21.57
2023-03-30T07:17:36.371Z,17.77
2023-03-30T07:20:05.871Z,19.90
2023-03-30T07:22:33.594Z,18.13
2023-03-30T07:25:02.654Z,18.07
2023-03-30T07:27:29.392Z,17.27
2023-03-30T07:30:04.825Z,14.77
2023-03-30T07:32:37.992Z,16.23
2023-03-30T07:35:08.904Z,15.77
2023-03-30T07:37:39.586Z,17.27
2023-03-30T07:40:10.594Z,15.63
2023-03-30T07:42:40.452Z,16.67
2023-03-30T07:45:07.642Z,15.57
2023-03-30T07:47:34.538Z,17.40
2023-03-30T07:50:01.852Z,16.17
2023-03-30T07:52:29.635Z,17.00
2023-03-30T07:55:01.218Z,17.43
2023-03-30T07:57:34.646Z,19.50
2023-03-30T08:00:02.274Z,17.13
2023-03-30T08:03:04.749Z,19.17
2023-03-30T08:05:32.865Z,18.53
2023-03-30T08:08:14.345Z,14.60
2023-03-30T08:10:41.268Z,16.70
2023-03-30T08:13:09.041Z,17.53
2023-03-30T08:15:35.863Z,18.00
2023-03-30T08:18:06.821Z,17.30
2023-03-30T08:20:37.129Z,19.30
2023-03-30T08:23:04.575Z,19.17
2023-03-30T08:25:31.364Z,16.83
2023-03-30T08:27:58.130Z,21.43
2023-03-30T08:30:25.200Z,19.87
2023-03-30T08:32:52.125Z,19.60
2023-03-30T08:35:20.575Z,17.53
2023-03-30T08:37:47.431Z,18.20
2023-03-30T08:40:15.459Z,19.67
2023-03-30T08:42:47.538Z,22.60
2023-03-30T08:45:14.689Z,18.70
2023-03-30T08:47:42.961Z,18.00
2023-03-30T08:50:37.039Z,16.63
2023-03-30T08:53:05.742Z,20.27
2023-03-30T08:55:38.630Z,14.87
2023-03-30T08:58:05.459Z,18.60
2023-03-30T09:00:44.468Z,17.10
2023-03-30T09:03:19.577Z,15.57
2023-03-30T09:05:48.664Z,16.47
2023-03-30T09:08:18.499Z,19.10
2023-03-30T09:10:46.821Z,17.70
2023-03-30T09:13:19.506Z,17.47
2023-03-30T09:15:48.069Z,15.67
2023-03-30T09:18:17.931Z,16.70
2023-03-30T09:20:46.155Z,15.63
2023-03-30T09:23:14.020Z,17.60
2023-03-30T09:25:54.957Z,16.57
2023-03-30T09:28:40.641Z,15.73
2023-03-30T09:31:09.433Z,15.53
2023-03-30T09:33:40.148Z,14.40
2023-03-30T09:36:16.418Z,14.43
2023-03-30T09:38:43.931Z,15.03
2023-03-30T09:41:30.080Z,13.47
2023-03-30T09:43:58.462Z,14.07
2023-03-30T09:46:27.183Z,14.33
2023-03-30T09:48:53.812Z,14.13
2023-03-30T09:51:21.994Z,14.30
2023-03-30T09:53:50.043Z,12.80
2023-03-30T09:56:21.216Z,14.63
2023-03-30T09:58:47.948Z,10.70
2023-03-30T10:01:16.900Z,11.13
2023-03-30T10:03:45.032Z,13.57
2023-03-30T10:06:16.076Z,9.97
2023-03-30T10:08:44.429Z,11.70
2023-03-30T10:11:11.729Z,8.83
2023-03-30T10:13:39.271Z,11.17
2023-03-30T10:16:08.038Z,10.27
2023-03-30T10:18:35.840Z,10.07
2023-03-30T10:21:06.871Z,11.50
2023-03-30T10:23:44.897Z,13.03
2023-03-30T10:26:15.543Z,12.23
2023-03-30T10:28:50.880Z,10.57
2023-03-30T10:31:17.647Z,11.87
2023-03-30T10:33:44.746Z,11.97
2023-03-30T10:36:11.922Z,13.03
2023-03-30T10:38:39.743Z,12.53
2023-03-30T10:41:12.853Z,13.53
2023-03-30T10:43:39.670Z,12.80
2023-03-30T10:46:19.464Z,15.63
2023-03-30T10:49:16.975Z,16.13
2023-03-30T10:52:02.327Z,13.43
2023-03-30T10:54:47.773Z,15.40
2023-03-30T10:57:18.956Z,16.27
2023-03-30T10:59:46.722Z,13.70
2023-03-30T11:02:17.221Z,14.77
2023-03-30T11:04:45.620Z,14.60
2023-03-30T11:07:14.069Z,14.53
2023-03-30T11:09:41.180Z,14.50
2023-03-30T11:12:15.711Z,13.17
2023-03-30T11:14:45.618Z,12.97
2023-03-30T11:17:32.724Z,12.03
2023-03-30T11:20:01.942Z,9.37
2023-03-30T11:22:41.356Z,9.67
2023-03-30T11:25:16.179Z,11.77
2023-03-30T11:28:03.128Z,13.90
2023-03-30T11:30:30.698Z,13.83
2023-03-30T11:32:58.725Z,13.53
2023-03-30T11:35:47.162Z,14.87
2023-03-30T11:38:25.058Z,11.63
2023-03-30T11:40:51.945Z,13.10
2023-03-30T11:43:19.655Z,13.93
2023-03-30T11:45:59.742Z,11.40
2023-03-30T11:48:50.502Z,11.33
2023-03-30T11:51:20.459Z,12.23
2023-03-30T11:53:47.170Z,12.33
2023-03-30T11:56:16.001Z,13.10
2023-03-30T11:58:44.112Z,13.50
2023-03-30T12:01:14.280Z,13.13
2023-03-30T12:03:49.271Z,14.10
2023-03-30T12:06:31.308Z,12.57
2023-03-30T12:09:04.842Z,12.57
2023-03-30T12:11:38.339Z,12.87
2023-03-30T12:14:08.510Z,12.47
2023-03-30T12:16:40.649Z,14.73
2023-03-30T12:19:12.070Z,16.27
2023-03-30T12:21:40.842Z,17.07
2023-03-30T12:24:23.028Z,15.77
2023-03-30T12:27:04.678Z,15.13
2023-03-30T12:32:28.447Z,14.47
2023-03-30T12:34:56.841Z,15.60
2023-03-30T12:37:36.434Z,16.90
2023-03-30T12:40:23.087Z,13.40
2023-03-30T12:43:10.100Z,13.03
2023-03-30T12:45:40.672Z,13.80
2023-03-30T12:48:19.828Z,17.33
2023-03-30T12:50:50.970Z,16.40
2023-03-30T12:53:17.875Z,17.80
2023-03-30T12:55:54.266Z,17.37
2023-03-30T12:58:37.144Z,20.70
2023-03-30T13:01:03.995Z,18.10
2023-03-30T13:03:47.746Z,14.43
2023-03-30T13:06:24.477Z,14.83
2023-03-30T13:08:55.842Z,18.67
2023-03-30T13:11:22.774Z,24.17
2023-03-30T13:13:56.527Z,25.93
2023-03-30T13:16:42.155Z,19.23
2023-03-30T13:19:21.255Z,17.47
2023-03-30T13:21:49.237Z,23.10
2023-03-30T13:24:42.367Z,26.23
2023-03-30T13:27:15.185Z,30.40
2023-03-30T13:29:42.316Z,28.03
2023-03-30T13:32:27.744Z,34.00
2023-03-30T13:35:07.960Z,25.20
2023-03-30T13:37:53.777Z,29.63
2023-03-30T13:40:41.575Z,24.13
2023-03-30T13:43:17.666Z,22.17
2023-03-30T13:45:50.573Z,20.33
2023-03-30T13:48:24.870Z,21.83
2023-03-30T13:50:53.868Z,21.10
2023-03-30T13:53:21.101Z,22.13
2023-03-30T13:55:48.490Z,24.10
2023-03-30T13:58:19.587Z,21.90
2023-03-30T14:00:49.071Z,26.23
2023-03-30T14:03:27.752Z,25.23
2023-03-30T14:05:54.866Z,25.63
2023-03-30T14:08:21.553Z,27.90
2023-03-30T14:10:50.108Z,24.77
2023-03-30T14:13:18.239Z,24.27
2023-03-30T14:15:45.605Z,24.80
2023-03-30T14:18:13.285Z,26.80
2023-03-30T14:20:43.157Z,29.37
2023-03-30T14:23:33.200Z,32.73
2023-03-30T14:26:01.220Z,28.23
2023-03-30T14:28:28.184Z,32.83
2023-03-30T14:30:57.893Z,31.03
2023-03-30T14:33:24.870Z,29.20
2023-03-30T14:35:53.025Z,29.17
2023-03-30T14:38:19.685Z,30.20
2023-03-30T14:40:47.961Z,29.30
2023-03-30T14:43:22.198Z,30.17
2023-03-30T14:45:50.721Z,33.87
2023-03-30T14:48:21.365Z,31.57
2023-03-30T14:50:48.927Z,32.33
2023-03-30T14:53:16.719Z,32.47
2023-03-30T14:55:43.772Z,32.23
2023-03-30T14:58:13.050Z,30.67
2023-03-30T15:00:42.380Z,37.70
2023-03-30T15:03:19.676Z,36.53
2023-03-30T15:05:54.261Z,34.90
2023-03-30T15:08:21.834Z,34.63
2023-03-30T15:10:50.495Z,34.43
2023-03-30T15:13:29.052Z,34.40
2023-03-30T15:15:58.463Z,33.37
2023-03-30T15:18:26.044Z,35.00
2023-03-30T15:20:53.197Z,31.43
2023-03-30T15:23:19.999Z,29.87
2023-03-30T15:25:46.960Z,39.90
2023-03-30T15:28:14.176Z,40.03
2023-03-30T15:30:44.164Z,31.20
2023-03-30T15:33:21.113Z,32.03
2023-03-30T15:35:55.667Z,33.17
2023-03-30T15:38:34.391Z,34.10
2023-03-30T15:41:02.475Z,29.87
2023-03-30T15:43:31.441Z,30.40
2023-03-30T15:46:06.061Z,29.77
2023-03-30T15:48:42.840Z,32.60
2023-03-30T15:51:21.960Z,33.57
2023-03-30T15:53:57.156Z,32.60
2023-03-30T15:56:36.138Z,33.87
2023-03-30T15:59:03.240Z,36.13
2023-03-30T16:01:59.428Z,39.43
2023-03-30T16:04:26.376Z,40.17
2023-03-30T16:06:53.270Z,40.63
2023-03-30T16:09:20.277Z,35.10
2023-03-30T16:11:49.414Z,32.60
2023-03-30T16:14:23.113Z,32.77
2023-03-30T16:16:50.072Z,33.67
2023-03-30T16:19:22.792Z,31.93
2023-03-30T16:21:50.150Z,34.20
2023-03-30T16:24:19.762Z,33.73
2023-03-30T16:26:47.440Z,36.77
2023-03-30T16:29:19.634Z,36.63
2023-03-30T16:31:47.016Z,33.87
2023-03-30T16:34:14.617Z,35.37
2023-03-30T16:36:44.665Z,36.80
2023-03-30T16:39:18.500Z,34.53
2023-03-30T16:41:45.970Z,35.33
2023-03-30T16:44:12.839Z,33.07
2023-03-30T16:46:42.432Z,37.63
2023-03-30T16:49:27.449Z,40.27
2023-03-30T16:51:57.862Z,36.50
2023-03-30T16:54:32.087Z,38.10
2023-03-30T16:56:59.961Z,37.90
2023-03-30T16:59:27.446Z,42.00
2023-03-30T17:01:55.561Z,38.33
2023-03-30T17:04:24.100Z,39.10
2023-03-30T17:06:51.371Z,41.20
2023-03-30T17:09:19.025Z,40.07
2023-03-30T17:11:47.344Z,39.90
2023-03-30T17:14:16.090Z,38.87
2023-03-30T17:16:49.127Z,40.50
2023-03-30T17:19:18.711Z,47.30
2023-03-30T17:21:57.175Z,38.50
2023-03-30T17:24:25.694Z,39.30
2023-03-30T17:26:55.725Z,39.47
2023-03-30T17:29:23.439Z,44.73
2023-03-30T17:31:52.602Z,45.93
2023-03-30T17:34:19.928Z,46.07
2023-03-30T17:36:47.787Z,43.00
2023-03-30T17:39:15.276Z,42.93
2023-03-30T17:41:43.845Z,41.83
2023-03-30T17:44:10.790Z,43.97
2023-03-30T17:46:37.742Z,45.90
2023-03-30T17:49:04.848Z,43.40
2023-03-30T17:51:31.590Z,43.83
2023-03-30T17:53:59.417Z,45.40
2023-03-30T17:56:26.962Z,50.20
2023-03-30T17:58:54.243Z,46.07
2023-03-30T18:01:21.130Z,47.33
2023-03-30T18:03:48.081Z,47.73
2023-03-30T18:06:14.721Z,48.27
2023-03-30T18:08:43.245Z,49.20
2023-03-30T18:11:10.155Z,44.20
2023-03-30T18:13:37.134Z,45.47
2023-03-30T18:16:03.865Z,42.43
2023-03-30T18:18:30.958Z,44.93
2023-03-30T18:20:59.063Z,39.87
2023-03-30T18:23:28.943Z,43.00
2023-03-30T18:25:58.306Z,41.90
2023-03-30T18:28:25.916Z,40.80
2023-03-30T18:30:57.533Z,44.10
2023-03-30T18:33:24.902Z,42.67
2023-03-30T18:35:52.212Z,37.53
2023-03-30T18:38:20.428Z,45.07
2023-03-30T18:40:50.079Z,43.23
2023-03-30T18:43:17.044Z,40.47
2023-03-30T18:45:48.066Z,39.47
2023-03-30T18:48:15.633Z,40.57
2023-03-30T18:50:45.967Z,43.30
2023-03-30T18:53:13.511Z,45.27
2023-03-30T18:55:42.275Z,44.27
2023-03-30T18:58:13.452Z,41.50
2023-03-30T19:00:40.352Z,44.93
2023-03-30T19:03:07.476Z,41.40
2023-03-30T19:05:34.487Z,44.37
2023-03-30T19:08:01.682Z,44.83
2023-03-30T19:10:31.675Z,42.00
2023-03-30T19:12:58.426Z,47.83
2023-03-30T19:15:26.645Z,47.03
2023-03-30T19:17:53.899Z,44.47
2023-03-30T19:20:21.578Z,47.13
2023-03-30T19:22:48.419Z,41.20
2023-03-30T19:25:16.705Z,43.13
2023-03-30T19:27:55.498Z,44.63
2023-03-30T19:30:32.991Z,44.13
2023-03-30T19:33:02.730Z,39.90
2023-03-30T19:35:29.840Z,39.03
2023-03-30T19:37:58.799Z,43.70
2023-03-30T19:40:26.982Z,40.70
2023-03-30T19:42:53.988Z,43.00
2023-03-30T19:45:21.323Z,41.07
2023-03-30T19:47:48.655Z,44.90
2023-03-30T19:50:18.964Z,44.60
2023-03-30T19:52:48.747Z,38.87
2023-03-30T19:55:15.766Z,40.90
2023-03-30T19:57:42.553Z,39.00
2023-03-30T20:00:12.844Z,38.87
2023-03-30T20:02:40.504Z,39.63
2023-03-30T20:05:07.532Z,42.17
2023-03-30T20:07:35.400Z,40.13
2023-03-30T20:10:02.321Z,42.10
2023-03-30T20:12:29.814Z,36.70
2023-03-30T20:14:59.009Z,34.57
2023-03-30T20:17:30.165Z,36.53
2023-03-30T20:19:58.314Z,33.17
2023-03-30T20:22:25.417Z,37.33
2023-03-30T20:24:52.305Z,32.13
2023-03-30T20:27:19.147Z,35.50
2023-03-30T20:29:46.850Z,33.90
2023-03-30T20:32:13.777Z,33.67
2023-03-30T20:34:40.634Z,33.57
2023-03-30T20:37:08.443Z,34.53
2023-03-30T20:39:37.302Z,32.83
2023-03-30T20:42:08.565Z,33.90
2023-03-30T20:44:35.464Z,28.77
2023-03-30T20:47:07.217Z,30.73
2023-03-30T20:49:34.211Z,28.43
2023-03-30T20:52:01.037Z,32.10
2023-03-30T20:54:28.215Z,28.23
2023-03-30T20:56:54.845Z,29.87
2023-03-30T20:59:22.625Z,29.63
2023-03-30T21:01:53.112Z,29.17
2023-03-30T21:04:19.971Z,27.07
2023-03-30T21:06:46.963Z,25.73
2023-03-30T21:09:13.735Z,26.43
2023-03-30T21:11:40.514Z,26.73
